createdAt,value
2017-10-25T00:01:28.967Z,13.10
2017-10-25T00:03:56.529Z,13.10
2017-10-25T00:06:24.070Z,13.00
2017-10-25T00:08:52.386Z,13.10
2017-10-25T00:11:19.924Z,13.00
2017-10-25T00:13:47.478Z,13.10
2017-10-25T00:16:15.012Z,13.10
2017-10-25T00:18:43.338Z,13.10
2017-10-25T00:21:10.870Z,13.00
2017-10-25T00:23:38.439Z,13.10
2017-10-25T00:26:05.976Z,13.10
2017-10-25T00:28:34.274Z,13.10
2017-10-25T00:31:01.830Z,13.00
2017-10-25T00:33:29.378Z,13.10
2017-10-25T00:35:57.710Z,13.20
2017-10-25T00:38:25.267Z,13.10
2017-10-25T00:40:52.835Z,13.20
2017-10-25T00:43:20.391Z,13.20
2017-10-25T00:45:47.943Z,13.10
2017-10-25T00:48:15.478Z,13.10
2017-10-25T00:50:43.044Z,13.10
2017-10-25T00:53:10.586Z,13.10
2017-10-25T00:55:38.150Z,13.10
2017-10-25T00:58:05.704Z,13.10
2017-10-25T01:00:33.263Z,13.10
2017-10-25T01:03:00.802Z,13.10
2017-10-25T01:05:29.141Z,13.20
2017-10-25T01:07:56.694Z,13.10
2017-10-25T01:10:24.265Z,13.20
2017-10-25T01:12:51.799Z,13.20
2017-10-25T01:15:19.359Z,13.20
2017-10-25T01:17:46.909Z,13.20
2017-10-25T01:20:14.472Z,13.20
2017-10-25T01:22:42.009Z,13.20
2017-10-25T01:25:09.582Z,13.10
2017-10-25T01:27:37.116Z,13.20
2017-10-25T01:30:05.455Z,13.20
2017-10-25T01:32:33.004Z,13.20
2017-10-25T01:35:00.543Z,13.10
2017-10-25T01:37:28.103Z,13.10
2017-10-25T01:39:55.644Z,13.10
2017-10-25T01:42:23.219Z,13.10
2017-10-25T01:44:50.770Z,13.20
2017-10-25T01:47:19.094Z,13.20
2017-10-25T01:49:46.652Z,13.10
2017-10-25T01:52:14.219Z,13.10
2017-10-25T01:54:41.759Z,13.20
2017-10-25T01:57:09.327Z,13.20
2017-10-25T01:59:37.324Z,13.20
2017-10-25T02:02:04.890Z,13.20
2017-10-25T02:04:32.430Z,13.10
2017-10-25T02:06:59.995Z,13.10
2017-10-25T02:09:27.544Z,13.10
2017-10-25T02:11:55.115Z,13.10
2017-10-25T02:14:22.652Z,13.10
2017-10-25T02:16:50.218Z,13.10
2017-10-25T02:19:17.755Z,13.10
2017-10-25T02:21:45.316Z,13.10
2017-10-25T02:24:12.852Z,13.10
2017-10-25T02:26:41.179Z,13.10
2017-10-25T02:29:08.722Z,13.10
2017-10-25T02:31:36.294Z,13.10
2017-10-25T02:34:03.844Z,13.10
2017-10-25T02:36:32.191Z,13.10
2017-10-25T02:39:00.486Z,13.10
2017-10-25T02:41:28.040Z,13.10
2017-10-25T02:43:55.567Z,13.10
2017-10-25T02:46:23.132Z,13.10
2017-10-25T02:48:51.428Z,13.10
2017-10-25T02:51:18.998Z,13.10
2017-10-25T02:53:46.535Z,13.10
2017-10-25T02:56:14.871Z,13.10
2017-10-25T02:58:42.407Z,13.00
2017-10-25T03:01:09.971Z,13.10
2017-10-25T03:03:37.502Z,13.10
2017-10-25T03:06:05.052Z,13.10
2017-10-25T03:08:33.388Z,13.00
2017-10-25T03:11:00.937Z,13.00
2017-10-25T03:13:28.504Z,13.00
2017-10-25T03:15:56.047Z,13.00
2017-10-25T03:18:23.611Z,13.00
2017-10-25T03:20:51.142Z,12.90
2017-10-25T03:23:18.713Z,12.90
2017-10-25T03:25:46.251Z,12.90
2017-10-25T03:28:14.586Z,13.00
2017-10-25T03:30:42.129Z,12.90
2017-10-25T03:33:09.700Z,13.00
2017-10-25T03:35:37.263Z,13.00
2017-10-25T03:38:04.831Z,13.00
2017-10-25T03:40:33.130Z,13.00
2017-10-25T03:43:08.174Z,13.00
2017-10-25T03:45:36.490Z,13.00
2017-10-25T03:48:04.056Z,13.00
2017-10-25T03:50:31.590Z,13.00
2017-10-25T03:52:59.161Z,13.10
2017-10-25T03:55:26.707Z,13.00
2017-10-25T03:57:54.279Z,13.00
2017-10-25T04:00:21.825Z,13.00
2017-10-25T04:02:49.392Z,13.00
2017-10-25T04:05:16.934Z,13.00
2017-10-25T04:07:44.528Z,13.00
2017-10-25T04:10:12.101Z,13.00
2017-10-25T04:12:39.743Z,13.00
2017-10-25T04:15:07.304Z,12.90
2017-10-25T04:17:34.874Z,13.00
2017-10-25T04:20:02.412Z,13.00
2017-10-25T04:22:29.974Z,13.00
2017-10-25T04:24:57.511Z,13.00
2017-10-25T04:27:25.839Z,13.00
2017-10-25T04:29:53.377Z,12.90
2017-10-25T04:32:20.948Z,13.00
2017-10-25T04:34:48.499Z,13.00
2017-10-25T04:37:16.074Z,13.00
2017-10-25T04:39:43.646Z,13.00
2017-10-25T04:42:11.179Z,13.00
2017-10-25T04:44:38.751Z,13.00
2017-10-25T04:47:06.287Z,13.00
2017-10-25T04:49:33.929Z,13.00
2017-10-25T04:52:01.488Z,13.00
2017-10-25T04:54:29.986Z,13.00
2017-10-25T04:56:57.648Z,13.00
2017-10-25T04:59:25.945Z,13.00
2017-10-25T05:01:54.092Z,13.00
2017-10-25T05:04:21.807Z,13.00
2017-10-25T05:06:49.827Z,13.00
2017-10-25T05:09:17.450Z,13.00
2017-10-25T05:11:44.993Z,13.00
2017-10-25T05:14:12.564Z,13.00
2017-10-25T05:16:40.112Z,13.00
2017-10-25T05:19:07.690Z,13.00
2017-10-25T05:21:35.287Z,13.00
2017-10-25T05:24:03.620Z,13.10
2017-10-25T05:26:31.157Z,13.00
2017-10-25T05:28:58.723Z,13.00
2017-10-25T05:31:26.429Z,13.00
2017-10-25T05:33:54.031Z,13.00
2017-10-25T05:36:21.567Z,13.00
2017-10-25T05:38:49.904Z,13.00
2017-10-25T05:41:17.446Z,13.00
2017-10-25T05:43:45.010Z,13.10
2017-10-25T05:46:12.572Z,13.00
2017-10-25T05:48:40.140Z,13.10
2017-10-25T05:51:08.455Z,13.10
2017-10-25T05:53:36.788Z,13.10
2017-10-25T05:56:04.324Z,13.10
2017-10-25T05:58:31.887Z,13.10
2017-10-25T06:00:59.432Z,13.10
2017-10-25T06:03:27.005Z,13.10
2017-10-25T06:05:54.546Z,13.10
2017-10-25T06:08:22.879Z,13.10
2017-10-25T06:10:50.431Z,13.00
2017-10-25T06:13:18.000Z,13.10
2017-10-25T06:15:45.556Z,13.10
2017-10-25T06:18:13.125Z,13.10
2017-10-25T06:20:40.682Z,13.10
2017-10-25T06:23:08.243Z,13.10
2017-10-25T06:25:35.784Z,13.10
2017-10-25T06:28:03.364Z,13.10
2017-10-25T06:30:30.898Z,13.10
2017-10-25T06:32:58.472Z,13.10
2017-10-25T06:35:26.015Z,13.10
2017-10-25T06:37:53.582Z,13.10
2017-10-25T06:40:21.129Z,13.10
2017-10-25T06:42:48.695Z,13.10
2017-10-25T06:45:16.273Z,13.20
2017-10-25T06:47:43.818Z,13.10
2017-10-25T06:50:11.379Z,13.20
2017-10-25T06:52:38.915Z,13.10
2017-10-25T06:55:06.483Z,13.20
2017-10-25T06:57:34.015Z,13.20
2017-10-25T07:00:02.335Z,13.20
2017-10-25T07:02:29.871Z,13.20
2017-10-25T07:04:57.435Z,13.20
2017-10-25T07:07:24.971Z,13.20
2017-10-25T07:09:53.308Z,13.20
2017-10-25T07:12:20.851Z,13.20
2017-10-25T07:14:48.435Z,13.20
2017-10-25T07:17:15.988Z,13.20
2017-10-25T07:19:43.554Z,13.30
2017-10-25T07:22:11.095Z,13.30
2017-10-25T07:24:38.683Z,13.30
2017-10-25T07:27:06.218Z,13.40
2017-10-25T07:29:33.782Z,13.30
2017-10-25T07:32:01.320Z,13.30
2017-10-25T07:34:28.911Z,13.30
2017-10-25T07:36:56.458Z,13.40
2017-10-25T07:39:24.027Z,13.40
2017-10-25T07:41:51.575Z,13.30
2017-10-25T07:44:19.140Z,13.40
2017-10-25T07:46:46.681Z,13.40
2017-10-25T07:49:14.240Z,13.40
2017-10-25T07:51:41.774Z,13.40
2017-10-25T07:54:10.099Z,13.40
2017-10-25T07:56:37.644Z,13.40
2017-10-25T07:59:05.219Z,13.40
2017-10-25T08:01:32.795Z,13.40
2017-10-25T08:04:00.371Z,13.40
2017-10-25T08:06:27.911Z,13.50
2017-10-25T08:08:55.458Z,13.40
2017-10-25T08:11:23.003Z,13.40
2017-10-25T08:13:50.566Z,13.40
2017-10-25T08:16:18.116Z,13.40
2017-10-25T08:18:45.687Z,13.40
2017-10-25T08:21:13.233Z,13.40
2017-10-25T08:23:40.767Z,13.30
2017-10-25T08:26:09.097Z,13.30
2017-10-25T08:28:36.646Z,13.30
2017-10-25T08:31:04.202Z,13.40
2017-10-25T08:33:31.734Z,13.40
2017-10-25T08:35:59.299Z,13.40
2017-10-25T08:38:26.847Z,13.50
2017-10-25T08:40:55.167Z,13.60
2017-10-25T08:43:22.726Z,13.60
2017-10-25T08:45:50.302Z,13.50
2017-10-25T08:48:18.635Z,13.50
2017-10-25T08:50:46.191Z,13.50
2017-10-25T08:53:13.720Z,13.60
2017-10-25T08:55:42.056Z,13.60
2017-10-25T08:58:09.601Z,13.60
2017-10-25T09:00:37.164Z,13.70
2017-10-25T09:03:04.712Z,13.70
2017-10-25T09:05:32.275Z,13.70
2017-10-25T09:07:59.815Z,13.70
2017-10-25T09:10:28.143Z,13.60
2017-10-25T09:12:55.669Z,13.70
2017-10-25T09:15:23.221Z,13.70
2017-10-25T09:17:50.754Z,13.60
2017-10-25T09:20:19.087Z,13.50
2017-10-25T09:22:46.619Z,13.50
2017-10-25T09:25:14.183Z,13.50
2017-10-25T09:27:41.717Z,13.60
2017-10-25T09:30:10.056Z,13.60
2017-10-25T09:32:37.599Z,13.60
2017-10-25T09:35:05.161Z,13.60
2017-10-25T09:37:32.693Z,13.60
2017-10-25T09:40:00.253Z,13.50
2017-10-25T09:42:27.794Z,13.60
2017-10-25T09:44:56.099Z,13.90
2017-10-25T09:47:23.656Z,13.90
2017-10-25T09:49:51.185Z,14.10
2017-10-25T09:52:18.740Z,14.20
2017-10-25T09:54:46.267Z,14.20
2017-10-25T09:57:13.827Z,14.30
2017-10-25T09:59:41.355Z,14.20
2017-10-25T10:02:08.935Z,14.30
2017-10-25T10:04:36.460Z,14.30
2017-10-25T10:07:04.789Z,14.40
2017-10-25T10:09:33.084Z,14.50
2017-10-25T10:12:00.631Z,14.50
2017-10-25T10:14:28.170Z,14.50
2017-10-25T10:16:55.720Z,14.40
2017-10-25T10:19:23.262Z,14.40
2017-10-25T10:21:50.811Z,14.40
2017-10-25T10:24:19.098Z,14.20
2017-10-25T10:26:46.656Z,14.20
2017-10-25T10:29:14.200Z,14.20
2017-10-25T10:31:42.528Z,14.20
2017-10-25T10:34:10.060Z,14.20
2017-10-25T10:36:37.611Z,14.10
2017-10-25T10:39:05.894Z,14.00
2017-10-25T10:41:33.438Z,14.00
2017-10-25T10:44:01.730Z,14.10
2017-10-25T10:46:29.286Z,14.00
2017-10-25T10:48:56.820Z,14.20
2017-10-25T10:51:24.380Z,14.40
2017-10-25T10:53:51.906Z,14.40
2017-10-25T10:56:19.463Z,14.40
2017-10-25T10:58:46.991Z,14.50
2017-10-25T11:01:14.514Z,14.60
2017-10-25T11:03:42.068Z,14.50
2017-10-25T11:06:09.600Z,14.50
2017-10-25T11:08:37.155Z,14.50
2017-10-25T11:11:04.682Z,14.60
2017-10-25T11:13:33.006Z,14.80
2017-10-25T11:16:00.531Z,14.80
2017-10-25T11:18:28.088Z,14.90
2017-10-25T11:20:55.621Z,14.80
2017-10-25T11:23:23.948Z,14.90
2017-10-25T11:25:51.483Z,14.80
2017-10-25T11:28:19.041Z,14.80
2017-10-25T11:30:46.570Z,14.80
2017-10-25T11:33:14.124Z,14.80
2017-10-25T11:35:41.653Z,14.80
2017-10-25T11:38:09.206Z,14.70
2017-10-25T11:40:36.734Z,14.70
2017-10-25T11:43:04.291Z,14.60
2017-10-25T11:45:32.580Z,14.50
2017-10-25T11:48:00.133Z,14.50
2017-10-25T11:50:27.662Z,14.50
2017-10-25T11:52:55.991Z,14.70
2017-10-25T11:55:23.527Z,14.60
2017-10-25T11:57:51.079Z,14.80
2017-10-25T12:00:19.374Z,14.70
2017-10-25T12:02:46.942Z,14.70
2017-10-25T12:05:14.468Z,15.00
2017-10-25T12:07:42.787Z,15.10
2017-10-25T12:10:10.317Z,15.10
2017-10-25T12:12:37.884Z,15.20
2017-10-25T12:15:05.420Z,15.20
2017-10-25T12:17:33.741Z,15.30
2017-10-25T12:20:01.275Z,15.30
2017-10-25T12:22:28.830Z,15.30
2017-10-25T12:24:57.155Z,15.40
2017-10-25T12:27:24.686Z,15.40
2017-10-25T12:29:52.238Z,15.50
2017-10-25T12:32:19.766Z,15.30
2017-10-25T12:34:47.326Z,15.10
2017-10-25T12:37:15.638Z,15.20
2017-10-25T12:39:43.194Z,15.20
2017-10-25T12:42:10.718Z,15.20
2017-10-25T12:44:39.048Z,15.10
2017-10-25T12:47:06.574Z,15.10
2017-10-25T12:49:34.900Z,15.60
2017-10-25T12:52:02.426Z,15.60
2017-10-25T12:54:29.978Z,15.50
2017-10-25T12:56:57.514Z,15.60
2017-10-25T12:59:25.078Z,15.50
2017-10-25T13:01:53.388Z,15.50
2017-10-25T13:04:20.943Z,15.50
2017-10-25T13:06:48.485Z,15.40
2017-10-25T13:09:16.810Z,15.30
2017-10-25T13:11:46.615Z,15.20
2017-10-25T13:17:08.095Z,15.30
2017-10-25T13:19:35.659Z,15.30
2017-10-25T13:22:03.202Z,15.30
2017-10-25T13:24:30.766Z,15.20
2017-10-25T13:26:58.306Z,15.20
2017-10-25T13:29:25.863Z,15.30
2017-10-25T13:31:53.394Z,15.30
2017-10-25T13:34:20.952Z,15.40
2017-10-25T13:36:48.491Z,15.40
2017-10-25T13:39:16.812Z,15.20
2017-10-25T13:41:44.346Z,15.20
2017-10-25T13:44:11.903Z,15.20
2017-10-25T13:46:39.430Z,15.40
2017-10-25T13:49:06.986Z,15.50
2017-10-25T13:51:34.519Z,15.50
2017-10-25T13:54:02.080Z,15.70
2017-10-25T13:56:29.612Z,15.80
2017-10-25T13:58:57.188Z,15.80
2017-10-25T14:01:24.726Z,15.90
2017-10-25T14:03:52.259Z,15.80
2017-10-25T14:06:20.591Z,15.80
2017-10-25T14:08:48.125Z,15.70
2017-10-25T14:11:15.675Z,15.70
2017-10-25T14:13:43.216Z,15.70
2017-10-25T14:16:11.541Z,15.60
2017-10-25T14:18:39.067Z,15.60
2017-10-25T14:21:06.619Z,15.70
2017-10-25T14:23:34.923Z,15.70
2017-10-25T14:26:02.480Z,15.70
2017-10-25T14:28:41.944Z,15.70
2017-10-25T14:31:09.502Z,15.80
2017-10-25T14:33:37.031Z,15.70
2017-10-25T14:36:04.596Z,15.60
2017-10-25T14:38:32.124Z,15.40
2017-10-25T14:41:00.501Z,15.40
2017-10-25T14:43:28.807Z,15.50
2017-10-25T14:45:56.359Z,15.50
2017-10-25T14:48:23.895Z,15.50
2017-10-25T14:50:51.452Z,15.50
2017-10-25T14:53:18.980Z,15.60
2017-10-25T14:55:46.540Z,15.50
2017-10-25T14:58:14.067Z,15.70
2017-10-25T15:00:41.619Z,15.90
2017-10-25T15:03:09.150Z,16.00
2017-10-25T15:05:37.487Z,15.50
2017-10-25T15:08:05.018Z,15.50
2017-10-25T15:10:32.583Z,15.40
2017-10-25T15:13:00.116Z,15.50
2017-10-25T15:15:28.437Z,15.40
2017-10-25T15:17:55.959Z,15.40
2017-10-25T15:20:24.281Z,15.30
2017-10-25T15:22:51.837Z,15.30
2017-10-25T15:25:19.373Z,15.30
2017-10-25T15:27:46.931Z,15.20
2017-10-25T15:30:14.461Z,15.20
2017-10-25T15:32:42.012Z,15.10
2017-10-25T15:35:09.543Z,15.20
2017-10-25T15:37:37.092Z,15.20
2017-10-25T15:40:04.627Z,15.20
2017-10-25T15:42:32.175Z,15.30
2017-10-25T15:45:00.476Z,15.10
2017-10-25T15:47:28.032Z,15.00
2017-10-25T15:49:55.562Z,14.90
2017-10-25T15:52:23.883Z,14.50
2017-10-25T15:54:51.419Z,14.50
2017-10-25T15:57:18.980Z,14.40
2017-10-25T15:59:46.511Z,14.40
2017-10-25T16:02:14.836Z,14.20
2017-10-25T16:04:42.362Z,14.20
2017-10-25T16:07:10.674Z,14.20
2017-10-25T16:09:38.204Z,14.20
2017-10-25T16:12:06.522Z,13.80
2017-10-25T16:14:34.050Z,13.80
2017-10-25T16:17:01.620Z,13.80
2017-10-25T16:19:29.147Z,13.80
2017-10-25T16:21:57.485Z,13.80
2017-10-25T16:24:25.780Z,13.60
2017-10-25T16:26:53.327Z,13.60
2017-10-25T16:29:20.868Z,13.60
2017-10-25T16:31:48.443Z,13.50
2017-10-25T16:34:16.740Z,13.30
2017-10-25T16:36:44.279Z,13.30
2017-10-25T16:39:11.837Z,13.20
2017-10-25T16:41:39.370Z,13.10
2017-10-25T16:44:06.932Z,13.10
2017-10-25T16:46:34.468Z,13.00
2017-10-25T16:49:02.794Z,13.00
2017-10-25T16:51:30.329Z,13.00
2017-10-25T16:53:57.883Z,13.00
2017-10-25T16:56:25.416Z,13.00
2017-10-25T16:58:53.742Z,12.90
2017-10-25T17:01:21.274Z,12.90
2017-10-25T17:03:48.849Z,12.80
2017-10-25T17:06:16.388Z,12.80
2017-10-25T17:08:43.940Z,12.90
2017-10-25T17:11:12.235Z,12.90
2017-10-25T17:13:40.002Z,12.90
2017-10-25T17:16:07.530Z,12.80
2017-10-25T17:18:35.855Z,12.70
2017-10-25T17:21:03.387Z,12.70
2017-10-25T17:23:30.956Z,12.70
2017-10-25T17:25:58.510Z,12.80
2017-10-25T17:28:26.079Z,12.90
2017-10-25T17:30:53.611Z,13.10
2017-10-25T17:33:21.935Z,13.00
2017-10-25T17:35:49.519Z,13.00
2017-10-25T17:38:17.422Z,12.90
2017-10-25T17:40:45.022Z,12.80
2017-10-25T17:43:12.692Z,12.70
2017-10-25T17:45:40.255Z,12.70
2017-10-25T17:48:07.938Z,12.70
2017-10-25T17:50:35.495Z,12.70
2017-10-25T17:53:03.042Z,12.60
2017-10-25T17:55:30.802Z,12.50
2017-10-25T17:57:58.338Z,12.50
2017-10-25T18:00:25.893Z,12.40
2017-10-25T18:02:53.480Z,12.50
2017-10-25T18:05:21.042Z,12.50
2017-10-25T18:07:48.605Z,12.40
2017-10-25T18:10:16.163Z,12.30
2017-10-25T18:12:43.696Z,12.20
2017-10-25T18:15:11.256Z,12.30
2017-10-25T18:17:38.782Z,12.20
2017-10-25T18:20:07.107Z,12.00
2017-10-25T18:22:34.678Z,12.00
2017-10-25T18:25:02.402Z,12.10
2017-10-25T18:27:29.946Z,12.10
2017-10-25T18:29:58.293Z,12.20
2017-10-25T18:32:26.615Z,12.10
2017-10-25T18:34:54.179Z,12.10
2017-10-25T18:40:15.955Z,12.10
2017-10-25T18:42:43.491Z,12.10
2017-10-25T18:45:11.054Z,12.10
2017-10-25T18:47:38.583Z,12.10
2017-10-25T18:50:06.905Z,12.00
2017-10-25T18:52:34.431Z,12.00
2017-10-25T18:55:02.750Z,11.90
2017-10-25T18:57:30.291Z,11.90
2017-10-25T18:59:57.843Z,11.70
2017-10-25T19:02:25.379Z,11.60
2017-10-25T19:04:53.708Z,11.60
2017-10-25T19:07:21.238Z,11.60
2017-10-25T19:09:48.796Z,11.60
2017-10-25T19:12:16.332Z,11.60
2017-10-25T19:14:44.633Z,11.70
2017-10-25T19:17:12.187Z,11.70
2017-10-25T19:19:39.723Z,11.70
2017-10-25T19:22:08.052Z,11.60
2017-10-25T19:24:35.596Z,11.60
2017-10-25T19:27:03.158Z,11.50
2017-10-25T19:29:30.707Z,11.50
2017-10-25T19:31:58.270Z,11.40
2017-10-25T19:34:25.804Z,11.40
2017-10-25T19:36:54.130Z,11.30
2017-10-25T19:39:21.664Z,11.30
2017-10-25T19:41:49.222Z,11.30
2017-10-25T19:44:16.760Z,11.30
2017-10-25T19:46:45.085Z,11.00
2017-10-25T19:49:12.621Z,10.90
2017-10-25T19:51:40.180Z,10.80
2017-10-25T19:54:07.717Z,10.70
2017-10-25T19:56:36.062Z,10.50
2017-10-25T19:59:03.603Z,10.50
2017-10-25T20:01:31.160Z,10.50
2017-10-25T20:03:58.692Z,10.50
2017-10-25T20:06:26.243Z,10.40
2017-10-25T20:08:54.543Z,10.20
2017-10-25T20:11:22.093Z,10.20
2017-10-25T20:13:49.626Z,10.20
2017-10-25T20:16:17.957Z,10.20
2017-10-25T20:18:45.497Z,10.20
2017-10-25T20:21:13.055Z,10.20
2017-10-25T20:23:40.592Z,10.10
2017-10-25T20:26:08.916Z,10.00
2017-10-25T20:28:36.460Z,9.90
2017-10-25T20:31:04.010Z,9.90
2017-10-25T20:33:31.546Z,9.90
2017-10-25T20:35:59.883Z,9.90
2017-10-25T20:38:27.402Z,9.90
2017-10-25T20:40:54.932Z,9.80
2017-10-25T20:43:22.494Z,9.90
2017-10-25T20:45:50.023Z,9.80
2017-10-25T20:48:17.579Z,9.70
2017-10-25T20:50:45.111Z,9.70
2017-10-25T20:53:12.658Z,9.70
2017-10-25T20:55:40.196Z,9.70
2017-10-25T20:58:08.535Z,10.10
2017-10-25T21:00:36.068Z,10.00
2017-10-25T21:03:03.618Z,10.00
2017-10-25T21:05:31.147Z,9.80
2017-10-25T21:07:58.694Z,9.60
2017-10-25T21:10:26.219Z,9.60
2017-10-25T21:12:53.777Z,9.50
2017-10-25T21:15:21.307Z,9.50
2017-10-25T21:17:48.864Z,9.60
2017-10-25T21:20:17.159Z,9.60
2017-10-25T21:22:44.711Z,9.60
2017-10-25T21:25:12.239Z,9.60
2017-10-25T21:27:39.790Z,9.60
2017-10-25T21:30:07.319Z,9.50
2017-10-25T21:32:35.655Z,9.50
2017-10-25T21:35:03.953Z,9.60
2017-10-25T21:37:31.510Z,9.50
2017-10-25T21:39:59.145Z,9.60
2017-10-25T21:42:27.468Z,9.50
2017-10-25T21:44:55.001Z,9.50
2017-10-25T21:47:22.558Z,9.40
2017-10-25T21:49:50.103Z,9.30
2017-10-25T21:52:18.426Z,9.40
2017-10-25T21:54:45.955Z,9.40
2017-10-25T21:57:13.514Z,9.60
2017-10-25T21:59:41.046Z,9.50
2017-10-25T22:02:08.575Z,9.40
2017-10-25T22:04:36.127Z,9.40
2017-10-25T22:07:03.664Z,9.30
2017-10-25T22:09:31.215Z,9.20
2017-10-25T22:11:58.748Z,9.10
2017-10-25T22:14:27.063Z,9.10
2017-10-25T22:16:54.593Z,9.00
2017-10-25T22:19:22.919Z,9.20
2017-10-25T22:21:50.446Z,9.10
2017-10-25T22:24:18.010Z,9.20
2017-10-25T22:26:45.548Z,9.10
2017-10-25T22:29:13.871Z,9.10
2017-10-25T22:52:15.016Z,9.10
2017-10-25T22:55:05.060Z,9.00
2017-10-25T22:57:32.601Z,9.00
2017-10-25T23:00:00.160Z,9.20
2017-10-25T23:02:27.695Z,9.20
2017-10-25T23:04:55.252Z,9.20
2017-10-25T23:07:22.791Z,9.20
2017-10-25T23:09:51.116Z,9.30
2017-10-25T23:12:18.647Z,9.30
2017-10-25T23:14:46.198Z,9.20
2017-10-25T23:17:14.498Z,9.30
2017-10-25T23:19:42.054Z,9.30
2017-10-25T23:22:09.588Z,9.20
2017-10-25T23:24:37.912Z,9.10
2017-10-25T23:27:05.443Z,9.10
2017-10-25T23:29:32.990Z,9.10
2017-10-25T23:32:01.285Z,8.90
2017-10-25T23:34:28.846Z,8.90
2017-10-25T23:36:56.384Z,8.90
2017-10-25T23:39:24.711Z,8.80
2017-10-25T23:42:10.595Z,8.80
2017-10-25T23:44:38.142Z,8.90
2017-10-25T23:47:05.674Z,8.80
2017-10-25T23:49:33.997Z,8.80
2017-10-25T23:52:01.527Z,8.80
2017-10-25T23:54:29.087Z,8.80
2017-10-25T23:56:56.619Z,8.80
2017-10-25T23:59:24.941Z,8.60
